Time;durP1;ratioP1;P1;durP2;ratioP2;P2;SDS_P1;SDS_P2;PMS_P1;PMS_P2;Temp;Humidity;BMP_temperature;BMP_pressure;BME280_temperature;BME280_humidity;BME280_pressure;Samples;Min_cycle;Max_cycle;Signal;HPM_P1;HPM_P2
2021/12/03 00:04:49;;;;;;;1.63;1.10;;;6.10;96.50;;;;;;10491712;28;20043;-67
2021/12/03 00:09:50;;;;;;;1.45;1.00;;;6.20;96.50;;;;;;10491974;28;20110;-71
2021/12/03 00:14:50;;;;;;;4.43;2.03;;;6.70;96.60;;;;;;10502150;28;20031;-68
2021/12/03 00:19:51;;;;;;;2.17;1.40;;;6.20;96.50;;;;;;10493912;28;20479;-70
2021/12/03 00:24:52;;;;;;;4.70;1.13;;;6.10;96.50;;;;;;10491815;28;20082;-68
2021/12/03 00:29:52;;;;;;;2.17;1.35;;;6.20;96.50;;;;;;10488344;28;20059;-71
2021/12/03 00:34:53;;;;;;;3.67;1.60;;;6.10;96.40;;;;;;10488310;28;20542;-69
2021/12/03 00:39:54;;;;;;;2.65;1.60;;;6.10;96.50;;;;;;10485495;28;20377;-71
2021/12/03 00:44:56;;;;;;;6.10;1.80;;;6.10;96.40;;;;;;10486247;28;20044;-73
2021/12/03 00:49:56;;;;;;;3.53;2.30;;;6.20;96.50;;;;;;10487659;28;20078;-72
2021/12/03 00:54:57;;;;;;;3.80;2.00;;;6.10;96.40;;;;;;10487728;28;20367;-72
2021/12/03 00:59:58;;;;;;;6.85;2.38;;;6.10;96.40;;;;;;10488127;28;20124;-71
2021/12/03 01:04:59;;;;;;;5.43;2.75;;;6.20;96.40;;;;;;10487157;28;20083;-72
2021/12/03 01:10:00;;;;;;;3.30;2.30;;;6.10;96.40;;;;;;10479323;28;20100;-71
2021/12/03 01:15:01;;;;;;;8.30;3.50;;;6.10;96.40;;;;;;10480217;28;20590;-72
2021/12/03 01:20:06;;;;;;;6.10;4.03;;;6.10;96.40;;;;;;10486580;28;20405;-72
2021/12/03 01:25:11;;;;;;;5.40;2.97;;;6.10;96.40;;;;;;10486408;28;20028;-72
2021/12/03 01:30:14;;;;;;;6.40;3.53;;;6.10;96.40;;;;;;10486087;28;20493;-72
2021/12/03 01:35:15;;;;;;;7.55;3.85;;;6.10;96.40;;;;;;10476028;28;20064;-68
2021/12/03 01:40:20;;;;;;;6.32;4.05;;;6.10;96.40;;;;;;10482147;28;20093;-71
2021/12/03 01:45:25;;;;;;;8.10;4.35;;;6.10;96.30;;;;;;10484946;28;20048;-71
2021/12/03 01:50:40;;;;;;;6.10;3.60;;;6.10;96.30;;;;;;10486305;28;20109;-72
2021/12/03 01:55:43;;;;;;;6.35;3.60;;;6.10;96.30;;;;;;10485299;28;20521;-72
2021/12/03 02:00:51;;;;;;;6.20;3.50;;;6.10;96.30;;;;;;10485088;28;20028;-70
2021/12/03 02:05:52;;;;;;;4.93;3.85;;;6.00;96.30;;;;;;10484558;28;20078;-70
2021/12/03 02:10:54;;;;;;;5.85;3.65;;;6.00;96.30;;;;;;10484938;28;20051;-71
2021/12/03 02:15:54;;;;;;;6.80;4.30;;;6.00;96.30;;;;;;10485214;28;20024;-71
2021/12/03 02:20:59;;;;;;;7.05;4.15;;;6.10;96.30;;;;;;10484742;28;20036;-70
2021/12/03 02:26:00;;;;;;;6.60;3.80;;;6.00;96.30;;;;;;10481815;28;20032;-67
2021/12/03 02:31:01;;;;;;;7.60;4.38;;;6.00;96.30;;;;;;10484670;28;20082;-70
2021/12/03 02:36:04;;;;;;;8.10;4.15;;;6.00;96.30;;;;;;10475332;28;20433;-71
2021/12/03 02:41:05;;;;;;;6.50;4.30;;;6.00;96.30;;;;;;10481083;28;20107;-71
2021/12/03 02:46:05;;;;;;;6.28;3.95;;;6.00;96.30;;;;;;10483547;28;20502;-71
2021/12/03 02:51:07;;;;;;;7.75;4.25;;;6.30;96.30;;;;;;10484723;28;20021;-71
2021/12/03 02:56:08;;;;;;;6.43;4.40;;;6.00;96.30;;;;;;10466964;28;20041;-72
2021/12/03 03:01:10;;;;;;;6.10;4.00;;;6.00;96.20;;;;;;10481527;28;20103;-70
2021/12/03 03:06:10;;;;;;;6.03;3.90;;;6.20;96.60;;;;;;10480490;28;20032;-68
2021/12/03 03:11:11;;;;;;;6.18;4.72;;;6.00;96.20;;;;;;10484442;28;20036;-71
2021/12/03 03:16:15;;;;;;;7.82;4.80;;;6.00;96.20;;;;;;10483787;28;20078;-67
2021/12/03 03:21:16;;;;;;;5.63;4.25;;;6.00;96.20;;;;;;10489319;28;20430;-71
2021/12/03 03:26:17;;;;;;;7.63;4.38;;;6.00;96.20;;;;;;10473152;28;20033;-65
2021/12/03 03:31:18;;;;;;;6.15;4.53;;;6.00;96.20;;;;;;10490667;28;20040;-72
2021/12/03 03:36:19;;;;;;;5.68;4.18;;;6.00;96.20;;;;;;10479720;28;20051;-71
2021/12/03 03:41:22;;;;;;;5.65;3.80;;;6.00;96.20;;;;;;10487102;28;20025;-70
2021/12/03 03:46:23;;;;;;;6.32;3.92;;;6.00;96.20;;;;;;10489560;28;20506;-71
2021/12/03 03:51:24;;;;;;;6.07;3.78;;;6.00;96.20;;;;;;10490272;28;20021;-71
2021/12/03 03:56:25;;;;;;;5.28;4.28;;;6.00;96.20;;;;;;10490031;28;20024;-70
2021/12/03 04:01:26;;;;;;;7.25;4.32;;;6.00;96.20;;;;;;10489250;28;20020;-69
2021/12/03 04:06:27;;;;;;;7.25;4.05;;;6.00;96.20;;;;;;10489348;28;20043;-71
2021/12/03 04:11:27;;;;;;;6.22;3.65;;;6.00;96.20;;;;;;10489375;28;20470;-68
2021/12/03 04:16:29;;;;;;;8.07;3.70;;;6.00;96.20;;;;;;10489373;28;20033;-71
2021/12/03 04:21:29;;;;;;;8.38;3.95;;;6.00;96.20;;;;;;10489329;28;20032;-70
2021/12/03 04:26:30;;;;;;;8.55;4.10;;;5.40;96.10;;;;;;10489179;28;20047;-67
2021/12/03 04:31:31;;;;;;;4.88;3.65;;;6.00;96.20;;;;;;10488546;28;20136;-71
2021/12/03 04:36:32;;;;;;;6.25;3.55;;;6.00;96.30;;;;;;10489135;28;20427;-72
2021/12/03 04:41:32;;;;;;;6.55;3.80;;;5.90;96.20;;;;;;10485056;28;20040;-72
2021/12/03 04:46:33;;;;;;;4.85;3.38;;;6.00;96.30;;;;;;10487983;28;20048;-69
2021/12/03 04:51:35;;;;;;;7.43;3.88;;;6.00;96.30;;;;;;10488150;28;20086;-69
2021/12/03 04:56:36;;;;;;;11.93;3.55;;;6.00;96.30;;;;;;10488366;28;20037;-72
2021/12/03 05:01:38;;;;;;;7.25;3.67;;;5.90;96.20;;;;;;10479156;28;20028;-69
2021/12/03 05:06:53;;;;;;;5.05;3.35;;;5.90;96.20;;;;;;10487957;28;20043;-69
2021/12/03 05:11:54;;;;;;;5.75;3.53;;;5.90;96.20;;;;;;10469359;28;20090;-69
2021/12/03 05:16:55;;;;;;;6.10;3.50;;;6.00;96.20;;;;;;10487135;28;20101;-71
2021/12/03 05:21:56;;;;;;;6.57;3.22;;;5.90;96.20;;;;;;10487330;28;20588;-70
2021/12/03 05:26:57;;;;;;;7.40;3.20;;;5.90;96.20;;;;;;10487559;28;20032;-69
2021/12/03 05:31:57;;;;;;;5.60;3.05;;;5.90;96.20;;;;;;10487382;28;20115;-72
2021/12/03 05:36:58;;;;;;;4.72;2.83;;;6.00;96.20;;;;;;10475735;28;20039;-72
2021/12/03 05:41:59;;;;;;;4.22;2.60;;;6.00;96.30;;;;;;10482051;28;20025;-71
2021/12/03 05:47:00;;;;;;;4.03;3.03;;;5.90;96.20;;;;;;10485560;28;20140;-68
2021/12/03 05:52:01;;;;;;;4.50;2.53;;;5.90;96.30;;;;;;10486213;28;20135;-71
2021/12/03 05:57:01;;;;;;;5.03;2.60;;;6.00;96.30;;;;;;10486237;28;20977;-71
2021/12/03 06:02:02;;;;;;;6.03;2.83;;;6.00;96.30;;;;;;10486254;28;20024;-73
2021/12/03 06:07:04;;;;;;;5.63;3.30;;;6.00;96.30;;;;;;10486293;28;20136;-72
2021/12/03 06:12:05;;;;;;;5.47;2.60;;;6.00;96.30;;;;;;10485728;28;20025;-72
2021/12/03 06:17:05;;;;;;;7.93;2.13;;;6.00;96.30;;;;;;10485697;28;20043;-71
2021/12/03 06:22:07;;;;;;;3.83;2.45;;;6.00;96.30;;;;;;10485466;28;20028;-69
2021/12/03 06:27:08;;;;;;;4.28;2.38;;;6.00;96.30;;;;;;10485128;28;20110;-66
2021/12/03 06:32:10;;;;;;;4.10;2.58;;;6.20;96.40;;;;;;10484893;28;20070;-69
2021/12/03 06:37:11;;;;;;;6.55;2.55;;;6.00;96.30;;;;;;10473820;28;20028;-72
2021/12/03 06:42:11;;;;;;;3.78;2.20;;;6.00;96.30;;;;;;10482464;28;20017;-71
2021/12/03 06:47:12;;;;;;;5.35;2.47;;;6.00;96.30;;;;;;10485263;28;20045;-72
2021/12/03 06:52:15;;;;;;;4.93;2.40;;;6.00;96.30;;;;;;10486291;28;20410;-71
2021/12/03 06:57:16;;;;;;;6.45;3.13;;;6.30;96.40;;;;;;10492375;28;20020;-70
2021/12/03 07:02:17;;;;;;;5.75;2.40;;;6.10;96.40;;;;;;10491944;28;20032;-67
2021/12/03 07:07:18;;;;;;;7.38;2.80;;;6.00;96.40;;;;;;10492714;28;20074;-71
2021/12/03 07:12:18;;;;;;;3.80;2.28;;;6.00;96.40;;;;;;10489279;28;20025;-63
2021/12/03 07:17:19;;;;;;;5.93;2.17;;;6.00;96.40;;;;;;10487448;28;20401;-72
2021/12/03 07:22:20;;;;;;;5.38;2.50;;;6.10;96.50;;;;;;10489146;28;20031;-70
2021/12/03 07:27:21;;;;;;;6.10;2.17;;;6.10;96.40;;;;;;10489494;28;20047;-71
2021/12/03 07:32:23;;;;;;;3.85;2.28;;;6.10;96.50;;;;;;10481885;28;20021;-70
2021/12/03 07:37:24;;;;;;;5.93;2.17;;;6.10;96.50;;;;;;10491155;28;20059;-69
2021/12/03 07:42:25;;;;;;;3.83;2.22;;;6.40;96.60;;;;;;10487775;28;20378;-69
2021/12/03 07:47:26;;;;;;;4.93;2.10;;;6.10;96.50;;;;;;10478217;28;20041;-69
2021/12/03 07:52:27;;;;;;;4.95;2.50;;;6.10;96.50;;;;;;10465370;28;20075;-70
2021/12/03 07:57:28;;;;;;;5.00;2.75;;;6.10;96.60;;;;;;10472681;28;20329;-65
2021/12/03 08:02:28;;;;;;;4.68;2.33;;;6.10;96.60;;;;;;10492003;28;20025;-71
2021/12/03 08:07:30;;;;;;;8.30;3.45;;;6.10;96.60;;;;;;10448505;28;20372;-72
2021/12/03 08:12:31;;;;;;;8.38;3.88;;;6.10;96.60;;;;;;10452165;28;20021;-73
2021/12/03 08:17:32;;;;;;;7.97;3.67;;;6.10;96.60;;;;;;10454532;28;20068;-70
2021/12/03 08:22:34;;;;;;;10.73;4.13;;;6.10;96.60;;;;;;10476542;28;20024;-67
2021/12/03 08:27:35;;;;;;;6.57;4.05;;;6.10;96.60;;;;;;10484867;28;20041;-72
2021/12/03 08:32:36;;;;;;;7.70;4.18;;;6.10;96.60;;;;;;10454471;28;20032;-73
2021/12/03 08:37:38;;;;;;;7.85;3.78;;;6.20;96.60;;;;;;10454014;28;20025;-74
2021/12/03 08:42:39;;;;;;;9.20;4.20;;;6.20;96.60;;;;;;10470548;28;20290;-71
2021/12/03 08:47:40;;;;;;;10.23;3.95;;;6.20;96.60;;;;;;10459054;28;20491;-73
2021/12/03 08:58:00;;;;;;;;;;;6.20;96.90;;;;;;10477215;28;20036;-76
2021/12/03 09:03:01;;;;;;;11.18;4.25;;;6.20;96.70;;;;;;10478378;28;20289;-74
2021/12/03 09:08:02;;;;;;;8.98;4.13;;;6.20;96.60;;;;;;10486583;28;20040;-68
2021/12/03 09:13:04;;;;;;;9.40;4.00;;;6.20;96.60;;;;;;10474864;28;20029;-70
2021/12/03 09:28:52;;;;;;;6.72;3.60;;;6.40;96.60;;;;;;10445829;28;20072;-70
2021/12/03 09:33:56;;;;;;;8.20;3.80;;;6.30;96.70;;;;;;10475576;28;20074;-68
2021/12/03 09:38:56;;;;;;;11.40;4.10;;;6.30;96.70;;;;;;10481449;28;20108;-76
2021/12/03 09:43:57;;;;;;;6.18;3.20;;;6.40;96.80;;;;;;10473946;28;20049;-73
2021/12/03 10:15:20;;;;;;;7.93;3.03;;;6.40;96.80;;;;;;10484572;28;20056;-74
2021/12/03 10:31:31;;;;;;;6.03;2.95;;;6.40;96.80;;;;;;10472800;28;20034;-75
2021/12/03 11:29:19;;;;;;;7.63;2.80;;;6.50;96.80;;;;;;10478205;28;20032;-72
2021/12/03 13:21:58;;;;;;;8.70;3.10;;;6.60;97.30;;;;;;10484056;28;20035;-70
2021/12/03 14:10:21;;;;;;;5.88;2.30;;;6.80;97.20;;;;;;10485578;28;20517;-67
2021/12/03 14:21:56;;;;;;;8.65;2.75;;;6.60;97.10;;;;;;10484869;28;20036;-66
2021/12/03 14:42:03;;;;;;;6.68;2.30;;;6.60;97.10;;;;;;10481224;28;19974;-73
2021/12/03 14:58:29;;;;;;;8.18;2.70;;;6.60;97.10;;;;;;10483672;28;20035;-71
2021/12/03 15:20:13;;;;;;;4.32;2.35;;;6.60;97.20;;;;;;10492235;28;20051;-73
2021/12/03 15:24:56;;;;;;;6.75;2.83;;;6.60;97.20;;;;;;10474207;28;20483;-72
2021/12/03 16:22:25;;;;;;;4.40;2.60;;;6.70;97.30;;;;;;10492980;28;20024;-67
2021/12/03 16:54:16;;;;;;;6.60;3.63;;;7.00;97.50;;;;;;10488265;28;20025;-72
2021/12/03 16:59:18;;;;;;;2.70;2.42;;;6.70;97.40;;;;;;10487105;28;20036;-73
2021/12/03 18:01:13;;;;;;;5.78;3.92;;;6.80;97.60;;;;;;10470216;28;20656;-77
2021/12/03 18:54:28;;;;;;;8.40;5.30;;;6.90;97.80;;;;;;10438727;28;20492;-66
2021/12/03 18:59:29;;;;;;;10.00;5.55;;;7.00;97.80;;;;;;10475291;28;20033;-69
2021/12/03 19:04:37;;;;;;;16.98;5.90;;;6.90;97.80;;;;;;10488980;28;20048;-71
2021/12/03 19:09:40;;;;;;;9.80;5.30;;;7.00;97.90;;;;;;10493170;28;20025;-68
2021/12/03 19:14:57;;;;;;;9.60;5.70;;;7.00;97.90;;;;;;10490220;28;20058;-72
2021/12/03 19:20:00;;;;;;;7.82;4.88;;;6.90;97.90;;;;;;10485830;28;20044;-70
2021/12/03 19:25:01;;;;;;;9.95;6.03;;;6.90;97.90;;;;;;10489062;28;20466;-70
2021/12/03 19:30:04;;;;;;;9.35;6.07;;;6.90;98.20;;;;;;10488088;28;20021;-71
2021/12/03 19:35:05;;;;;;;9.88;5.30;;;6.90;98.00;;;;;;10483906;28;20044;-73
2021/12/03 19:40:11;;;;;;;8.02;5.13;;;6.90;98.00;;;;;;10484173;28;20272;-73
2021/12/03 19:45:17;;;;;;;8.38;5.60;;;6.90;98.00;;;;;;10492331;28;20386;-72
2021/12/03 19:50:34;;;;;;;7.82;5.03;;;6.90;98.00;;;;;;10489565;28;20032;-69
2021/12/03 19:55:38;;;;;;;8.85;6.13;;;6.90;98.00;;;;;;10484322;28;20081;-70
2021/12/03 20:00:40;;;;;;;9.70;5.63;;;7.20;98.10;;;;;;10499683;28;20035;-73
2021/12/03 20:05:41;;;;;;;8.73;5.38;;;7.00;98.10;;;;;;10486733;28;20477;-73
2021/12/03 20:10:46;;;;;;;9.07;5.63;;;6.90;98.10;;;;;;10486167;28;20474;-72
2021/12/03 20:16:18;;;;;;;11.77;5.95;;;7.00;98.10;;;;;;10491005;28;20036;-71
2021/12/03 20:21:10;;;;;;;8.85;5.88;;;7.00;98.10;;;;;;10491202;28;20509;-73
2021/12/03 20:31:29;;;;;;;8.35;5.35;;;7.20;98.20;;;;;;10478737;28;20479;-72
2021/12/03 20:41:46;;;;;;;9.60;5.43;;;7.00;98.20;;;;;;10485143;28;20246;-73
2021/12/03 21:12:51;;;;;;;8.35;5.22;;;7.00;98.20;;;;;;10486575;28;20024;-72
2021/12/03 21:23:06;;;;;;;8.02;5.32;;;7.00;98.20;;;;;;10480469;28;20396;-72
2021/12/03 21:33:38;;;;;;;9.02;5.10;;;7.00;98.20;;;;;;10457385;28;20020;-71
2021/12/03 21:43:41;;;;;;;7.18;4.80;;;7.00;98.20;;;;;;10461244;28;20023;-73
2021/12/03 21:48:42;;;;;;;8.48;4.93;;;7.00;98.20;;;;;;10461468;28;20490;-71
2021/12/03 21:53:44;;;;;;;9.63;4.70;;;7.00;98.20;;;;;;10455473;28;20028;-73
2021/12/03 21:58:44;;;;;;;7.90;5.07;;;7.00;98.30;;;;;;10451400;28;20109;-73
2021/12/03 22:03:46;;;;;;;9.07;5.22;;;7.10;98.30;;;;;;10452698;28;20501;-72
2021/12/03 22:08:46;;;;;;;9.00;5.10;;;7.10;98.30;;;;;;10457849;28;20470;-65
2021/12/03 22:13:47;;;;;;;8.90;5.43;;;7.00;98.50;;;;;;10453896;28;20029;-70
2021/12/03 22:18:48;;;;;;;9.25;5.40;;;7.10;98.30;;;;;;10452963;28;20031;-73
2021/12/03 22:23:49;;;;;;;9.40;5.40;;;7.00;98.30;;;;;;10473621;28;20111;-68
2021/12/03 22:28:50;;;;;;;6.75;4.13;;;7.00;98.30;;;;;;10489541;28;20017;-69
2021/12/03 22:33:50;;;;;;;10.73;5.35;;;7.10;98.50;;;;;;10463543;28;20041;-69
2021/12/03 22:38:51;;;;;;;8.75;5.38;;;7.20;98.40;;;;;;10460401;28;20532;-68
2021/12/03 22:43:53;;;;;;;7.75;4.97;;;7.20;98.40;;;;;;10458670;28;20030;-69
2021/12/03 22:49:15;;;;;;;8.30;5.15;;;7.30;98.40;;;;;;10470489;28;20124;-69
2021/12/03 22:54:15;;;;;;;8.95;5.65;;;7.20;98.40;;;;;;10466056;28;20066;-69
2021/12/03 22:59:16;;;;;;;10.15;5.68;;;7.20;98.70;;;;;;10457342;28;20028;-69
2021/12/03 23:04:16;;;;;;;10.25;5.32;;;7.30;98.50;;;;;;10455555;28;20037;-69
2021/12/03 23:09:17;;;;;;;10.90;5.95;;;7.20;98.50;;;;;;10473035;28;20624;-69
2021/12/03 23:14:18;;;;;;;9.23;5.00;;;7.20;98.50;;;;;;10492492;28;20039;-69
2021/12/03 23:19:20;;;;;;;11.02;5.50;;;7.20;98.60;;;;;;10492772;28;20314;-69
2021/12/03 23:24:21;;;;;;;10.32;5.63;;;7.20;98.60;;;;;;10486086;28;20118;-69
2021/12/03 23:29:22;;;;;;;11.57;5.70;;;7.30;98.60;;;;;;10504628;28;20085;-70
2021/12/03 23:34:24;;;;;;;10.00;5.80;;;7.20;98.60;;;;;;10513900;28;20725;-69
2021/12/03 23:39:24;;;;;;;9.27;5.47;;;7.20;98.60;;;;;;10492309;28;20033;-69
2021/12/03 23:44:25;;;;;;;11.07;5.80;;;7.30;98.60;;;;;;10491590;28;20052;-70
2021/12/03 23:49:27;;;;;;;9.60;5.43;;;7.20;98.50;;;;;;10485731;28;20025;-69
2021/12/03 23:54:30;;;;;;;8.63;5.43;;;7.20;98.50;;;;;;10490960;28;20036;-69
2021/12/03 23:59:32;;;;;;;10.27;5.75;;;7.20;98.50;;;;;;10489372;28;20398;-70
